MMTO/TLC METAR and TAF weather

Enter ICAO airport designator
Station Type Date Time Source
MMTO METAR 2019/10/23 20:46 UTC NOAA

MMTO 232046Z 33011KT 6SM BKN015CB 21/07 A3023 RMK SLP053 57022 957 8/300 HZY


Station Type Date Time Source
MMTO Decoded METAR 2019/10/23 20:46 UTC NOAA

Toluca / Jose Maria , Mexico (MMTO) 19-21N 099-34W
Oct 23, 2019 - 04:46 PM EDT / 2019.10.23 2046 UTC
Wind: from the NNW (330 degrees) at 13 MPH (11 KT):0
Visibility: 6 mile(s):0
Sky conditions: mostly cloudy
Weather: Cumulonimbus clouds observed
Temperature: 69 F (21 C)
Dew Point: 44 F (7 C)
Relative Humidity: 40%
Pressure (altimeter): 30.23 in. Hg (1023 hPa)
Pressure tendency: 0.06 inches (2.2 hPa) lower than three hours ago
ob: MMTO 232046Z 33011KT 6SM BKN015CB 21/07 A3023 RMK SLP053 57022 957 8/300 HZY
cycle: 21

Station Type Date Time Source
MMTO TAF 2019/10/23 18:45 UTC NOAA

TAF TAF MMTO 231643Z 2318/2424 03015KT 4SM HZ BKN010 BKN120 TX19/2320Z TN10/2412Z
FM232000 02015KT 5SM HZ BKN015CB OVC080
TEMPO 2322/2402 4SM TSRA
BECMG 2403/2404 08005KT 5SM -RA
FM240900 00000KT 3SM BR OVC010
FM241500 10010KT 3SM BR OVC015

Example: see airport list